Time;durP1;ratioP1;P1;durP2;ratioP2;P2;SDS_P1;SDS_P2;PMS_P1;PMS_P2;Temp;Humidity;BMP_temperature;BMP_pressure;BME280_temperature;BME280_humidity;BME280_pressure;Samples;Min_cycle;Max_cycle;Signal;HPM_P1;HPM_P2
2023/06/23 00:00:25;;;;;;;;;30.00;24.67;;;;;;;;5051542;28;45504;-67
2023/06/23 00:02:50;;;;;;;;;26.67;24.00;;;;;;;;5041899;28;46032;-67
2023/06/23 00:05:16;;;;;;;;;25.67;22.00;;;;;;;;5059383;28;45714;-68
2023/06/23 00:07:42;;;;;;;;;9.00;8.33;;;;;;;;5064089;27;45579;-67
2023/06/23 00:10:10;;;;;;;;;19.67;16.00;;;;;;;;5068560;27;45410;-68
2023/06/23 00:12:36;;;;;;;;;12.33;10.67;;;;;;;;5059876;27;46822;-67
2023/06/23 00:15:02;;;;;;;;;14.67;12.33;;;;;;;;5055801;27;47745;-67
2023/06/23 00:17:27;;;;;;;;;10.00;9.67;;;;;;;;5079460;27;45500;-67
2023/06/23 00:19:52;;;;;;;;;20.00;18.67;;;;;;;;5073512;28;45409;-66
2023/06/23 00:22:18;;;;;;;;;11.33;9.33;;;;;;;;5074106;27;45457;-67
2023/06/23 00:24:43;;;;;;;;;9.33;9.33;;;;;;;;5074636;27;46634;-66
2023/06/23 00:27:08;;;;;;;;;11.67;9.67;;;;;;;;5055152;28;45352;-66
2023/06/23 00:29:33;;;;;;;;;12.33;8.00;;;;;;;;5073695;28;45774;-66
2023/06/23 00:31:59;;;;;;;;;13.67;11.00;;;;;;;;5071926;27;45923;-67
2023/06/23 00:34:24;;;;;;;;;8.33;7.00;;;;;;;;5054325;28;46659;-67
2023/06/23 00:36:49;;;;;;;;;9.00;9.00;;;;;;;;5074144;27;45424;-67
2023/06/23 00:39:14;;;;;;;;;16.00;12.33;;;;;;;;5072860;28;46033;-66
2023/06/23 00:41:40;;;;;;;;;9.67;9.33;;;;;;;;5078308;27;46016;-65
2023/06/23 00:44:09;;;;;;;;;10.67;10.00;;;;;;;;5072089;28;46069;-66
2023/06/23 00:46:35;;;;;;;;;12.33;10.67;;;;;;;;5074065;27;45409;-66
2023/06/23 00:49:00;;;;;;;;;7.33;7.00;;;;;;;;5069400;28;45768;-68
2023/06/23 00:51:26;;;;;;;;;13.67;10.00;;;;;;;;5069873;27;45525;-67
2023/06/23 00:53:52;;;;;;;;;10.00;9.67;;;;;;;;5065707;27;45756;-67
2023/06/23 00:56:18;;;;;;;;;13.00;9.67;;;;;;;;5066153;28;45528;-67
2023/06/23 00:58:45;;;;;;;;;16.67;13.00;;;;;;;;5069256;27;45501;-68
2023/06/23 01:01:10;;;;;;;;;10.00;8.33;;;;;;;;5068849;27;45735;-67
2023/06/23 01:03:36;;;;;;;;;11.00;10.67;;;;;;;;5071448;28;46514;-67
2023/06/23 01:06:09;;;;;;;;;13.00;9.33;;;;;;;;5072698;28;45500;-67
2023/06/23 01:08:38;;;;;;;;;10.67;9.33;;;;;;;;5072727;28;45355;-66
2023/06/23 01:11:12;;;;;;;;;10.00;9.67;;;;;;;;5066060;28;45483;-67
2023/06/23 01:13:52;;;;;;;;;12.33;9.00;;;;;;;;5067604;28;45472;-66
2023/06/23 01:16:19;;;;;;;;;9.33;8.33;;;;;;;;5039700;28;45351;-66
2023/06/23 01:18:50;;;;;;;;;10.33;8.00;;;;;;;;5053760;28;45661;-67
2023/06/23 01:21:19;;;;;;;;;12.00;9.33;;;;;;;;5052327;28;45784;-67
2023/06/23 01:23:45;;;;;;;;;8.33;7.33;;;;;;;;5052726;28;47017;-67
2023/06/23 01:26:29;;;;;;;;;9.67;8.67;;;;;;;;5069875;28;45656;-68
2023/06/23 01:28:57;;;;;;;;;12.33;9.00;;;;;;;;5047535;28;45723;-66
2023/06/23 01:31:25;;;;;;;;;14.00;8.33;;;;;;;;5052320;28;46162;-66
2023/06/23 01:33:57;;;;;;;;;11.33;11.33;;;;;;;;5058213;28;45733;-66
2023/06/23 01:36:29;;;;;;;;;11.00;9.67;;;;;;;;5061415;28;45777;-67
2023/06/23 01:39:00;;;;;;;;;10.67;7.33;;;;;;;;5053358;28;45526;-68
2023/06/23 01:41:26;;;;;;;;;10.00;8.67;;;;;;;;5053417;28;45524;-66
2023/06/23 01:43:55;;;;;;;;;8.33;7.67;;;;;;;;5067317;28;46753;-67
2023/06/23 01:46:25;;;;;;;;;11.67;9.67;;;;;;;;5054717;28;45668;-67
2023/06/23 01:48:54;;;;;;;;;7.67;7.67;;;;;;;;5062439;28;45732;-69
2023/06/23 01:51:19;;;;;;;;;10.33;9.33;;;;;;;;5054691;28;45735;-68
2023/06/23 01:53:46;;;;;;;;;11.00;9.00;;;;;;;;5061557;28;45751;-66
2023/06/23 01:56:13;;;;;;;;;9.00;7.00;;;;;;;;5067464;28;45441;-66
2023/06/23 01:58:39;;;;;;;;;8.00;8.00;;;;;;;;5065179;28;45404;-67
2023/06/23 02:01:06;;;;;;;;;8.33;8.33;;;;;;;;5058499;28;45413;-67
2023/06/23 02:03:32;;;;;;;;;10.00;8.67;;;;;;;;5069822;28;47273;-66
2023/06/23 02:05:58;;;;;;;;;10.33;10.33;;;;;;;;5054273;28;45415;-67
2023/06/23 02:08:25;;;;;;;;;10.67;9.67;;;;;;;;5067654;28;45572;-67
2023/06/23 02:10:52;;;;;;;;;11.00;9.00;;;;;;;;5052420;28;45845;-66
2023/06/23 02:13:19;;;;;;;;;16.00;11.00;;;;;;;;5053833;28;48480;-66
2023/06/23 02:15:46;;;;;;;;;11.33;9.67;;;;;;;;5052880;28;45325;-66
2023/06/23 02:18:12;;;;;;;;;12.00;11.00;;;;;;;;5046261;28;45770;-67
2023/06/23 02:20:39;;;;;;;;;8.00;8.00;;;;;;;;5052200;28;46080;-66
2023/06/23 02:23:04;;;;;;;;;14.00;10.67;;;;;;;;5054127;28;47065;-67
2023/06/23 02:25:30;;;;;;;;;9.67;9.67;;;;;;;;5054293;28;45469;-68
2023/06/23 02:27:56;;;;;;;;;11.33;11.00;;;;;;;;5055289;28;45689;-66
2023/06/23 02:30:22;;;;;;;;;9.67;9.33;;;;;;;;5056047;28;46215;-66
2023/06/23 02:32:47;;;;;;;;;11.33;9.00;;;;;;;;5047575;27;45581;-67
2023/06/23 02:35:13;;;;;;;;;14.67;10.33;;;;;;;;5054582;28;45413;-66
2023/06/23 02:37:40;;;;;;;;;6.33;6.33;;;;;;;;5055389;28;46358;-68
2023/06/23 02:40:11;;;;;;;;;8.67;8.33;;;;;;;;5054818;28;45698;-67
2023/06/23 02:42:40;;;;;;;;;9.33;5.67;;;;;;;;5045145;28;46189;-67
2023/06/23 02:45:07;;;;;;;;;13.67;10.00;;;;;;;;5054453;28;45379;-66
2023/06/23 02:47:36;;;;;;;;;9.00;8.33;;;;;;;;5054476;28;45524;-68
2023/06/23 02:50:04;;;;;;;;;10.33;9.67;;;;;;;;5034788;28;46218;-69
2023/06/23 02:52:34;;;;;;;;;10.00;8.00;;;;;;;;5048864;28;45848;-68
2023/06/23 02:55:01;;;;;;;;;10.33;8.00;;;;;;;;5054644;28;45546;-67
2023/06/23 02:57:29;;;;;;;;;8.00;7.00;;;;;;;;5053649;28;45701;-68
2023/06/23 02:59:54;;;;;;;;;8.67;7.67;;;;;;;;5056449;28;45560;-68
2023/06/23 03:02:22;;;;;;;;;8.00;6.00;;;;;;;;5066937;28;45213;-68
2023/06/23 03:04:47;;;;;;;;;9.67;9.33;;;;;;;;5054187;28;45682;-68
2023/06/23 03:07:14;;;;;;;;;10.33;7.67;;;;;;;;5057990;28;45646;-67
2023/06/23 03:09:42;;;;;;;;;8.00;6.00;;;;;;;;5057906;27;45454;-66
2023/06/23 03:12:07;;;;;;;;;9.33;8.33;;;;;;;;5074892;27;46060;-66
2023/06/23 03:14:33;;;;;;;;;12.33;10.67;;;;;;;;5074018;27;45922;-67
2023/06/23 03:17:00;;;;;;;;;9.00;6.33;;;;;;;;5062655;27;45833;-67
2023/06/23 03:19:49;;;;;;;;;7.33;7.00;;;;;;;;5074718;27;45607;-67
2023/06/23 03:22:21;;;;;;;;;9.00;7.33;;;;;;;;5057142;28;48496;-66
2023/06/23 03:24:51;;;;;;;;;9.33;7.00;;;;;;;;5074913;28;45765;-66
2023/06/23 03:27:18;;;;;;;;;10.00;8.33;;;;;;;;5074839;28;45412;-67
2023/06/23 03:29:46;;;;;;;;;7.00;7.00;;;;;;;;5074008;28;45479;-67
2023/06/23 03:32:14;;;;;;;;;8.00;6.33;;;;;;;;5077678;27;46628;-67
2023/06/23 03:34:42;;;;;;;;;10.00;8.00;;;;;;;;5068026;27;45363;-69
2023/06/23 03:37:09;;;;;;;;;13.67;10.67;;;;;;;;5066419;27;45506;-67
2023/06/23 03:39:38;;;;;;;;;6.67;6.33;;;;;;;;5074712;27;46408;-69
2023/06/23 03:42:05;;;;;;;;;7.00;7.00;;;;;;;;5055190;27;46388;-69
2023/06/23 03:44:36;;;;;;;;;10.33;10.33;;;;;;;;5073186;27;45836;-66
2023/06/23 03:47:08;;;;;;;;;10.33;7.67;;;;;;;;5073917;27;45347;-68
2023/06/23 03:49:37;;;;;;;;;7.33;7.33;;;;;;;;5076966;27;45714;-67
2023/06/23 03:52:04;;;;;;;;;10.00;10.00;;;;;;;;5084176;27;46188;-67
2023/06/23 03:54:31;;;;;;;;;11.67;9.33;;;;;;;;5081634;27;45487;-66
2023/06/23 03:56:56;;;;;;;;;14.00;9.67;;;;;;;;5072912;27;45372;-67
2023/06/23 03:59:25;;;;;;;;;11.00;9.00;;;;;;;;5055057;28;45371;-66
2023/06/23 04:01:51;;;;;;;;;8.67;7.00;;;;;;;;5081197;27;45995;-68
2023/06/23 04:04:18;;;;;;;;;9.33;7.33;;;;;;;;5072956;28;45734;-67
2023/06/23 04:06:45;;;;;;;;;10.00;9.33;;;;;;;;5072874;27;45755;-66
2023/06/23 04:09:12;;;;;;;;;8.00;8.00;;;;;;;;5076271;27;45828;-67
2023/06/23 04:11:38;;;;;;;;;10.33;10.33;;;;;;;;5072906;27;46099;-66
2023/06/23 04:14:05;;;;;;;;;11.33;10.00;;;;;;;;5050741;28;45713;-66
2023/06/23 04:16:33;;;;;;;;;8.67;7.00;;;;;;;;5039343;28;45989;-66
2023/06/23 04:19:01;;;;;;;;;7.67;7.67;;;;;;;;5072431;27;45408;-66
2023/06/23 04:21:27;;;;;;;;;11.00;7.00;;;;;;;;5078106;27;45759;-68
2023/06/23 04:23:53;;;;;;;;;10.50;8.50;;;;;;;;5072344;27;46479;-69
2023/06/23 04:26:19;;;;;;;;;8.67;6.67;;;;;;;;5072049;27;45784;-69
2023/06/23 04:28:45;;;;;;;;;6.33;6.33;;;;;;;;5071578;27;45816;-70
2023/06/23 04:31:12;;;;;;;;;7.33;5.33;;;;;;;;5060948;27;45794;-69
2023/06/23 04:33:37;;;;;;;;;10.00;7.67;;;;;;;;5064176;27;45831;-70
2023/06/23 04:36:10;;;;;;;;;10.00;9.00;;;;;;;;5048648;28;45766;-70
2023/06/23 04:38:37;;;;;;;;;15.00;14.00;;;;;;;;5061804;27;45496;-68
2023/06/23 04:41:07;;;;;;;;;14.67;13.00;;;;;;;;5053157;27;47277;-69
2023/06/23 04:43:37;;;;;;;;;22.33;19.33;;;;;;;;5071595;27;45446;-68
2023/06/23 04:46:21;;;;;;;;;30.67;29.00;;;;;;;;5071128;27;45752;-69
2023/06/23 04:48:55;;;;;;;;;25.00;18.33;;;;;;;;5070958;27;45383;-68
2023/06/23 04:51:21;;;;;;;;;27.00;22.67;;;;;;;;5071486;27;45411;-68
2023/06/23 04:53:49;;;;;;;;;13.00;10.50;;;;;;;;5073233;27;45793;-67
2023/06/23 04:56:16;;;;;;;;;21.67;18.33;;;;;;;;5073436;27;45447;-69
2023/06/23 04:58:43;;;;;;;;;6.50;6.25;;;;;;;;5067648;27;45501;-67
2023/06/23 05:01:10;;;;;;;;;11.00;9.50;;;;;;;;5065360;27;46270;-66
2023/06/23 05:03:36;;;;;;;;;7.75;6.25;;;;;;;;5071109;27;45401;-69
2023/06/23 05:06:03;;;;;;;;;7.75;6.25;;;;;;;;5078948;27;45542;-67
2023/06/23 05:08:30;;;;;;;;;10.25;6.50;;;;;;;;5050108;28;45889;-68
2023/06/23 05:10:59;;;;;;;;;8.25;7.25;;;;;;;;5048467;28;45403;-69
2023/06/23 05:13:26;;;;;;;;;5.00;5.00;;;;;;;;5058619;28;45710;-67
2023/06/23 05:15:52;;;;;;;;;8.75;6.50;;;;;;;;5049903;28;45491;-69
2023/06/23 05:18:17;;;;;;;;;8.00;7.25;;;;;;;;5051453;28;45390;-66
2023/06/23 05:20:44;;;;;;;;;6.00;4.25;;;;;;;;5050797;28;46243;-73
2023/06/23 05:23:10;;;;;;;;;7.00;6.75;;;;;;;;5057652;28;45733;-67
2023/06/23 05:25:36;;;;;;;;;5.50;5.50;;;;;;;;5050561;28;45389;-67
2023/06/23 05:28:03;;;;;;;;;7.00;7.00;;;;;;;;5056477;28;45741;-66
2023/06/23 05:30:29;;;;;;;;;6.75;5.75;;;;;;;;5062674;28;45338;-67
2023/06/23 05:32:55;;;;;;;;;10.25;5.25;;;;;;;;5051063;28;45647;-66
2023/06/23 05:35:22;;;;;;;;;3.50;3.50;;;;;;;;5059463;28;45828;-68
2023/06/23 05:37:49;;;;;;;;;5.00;4.25;;;;;;;;5054660;28;45940;-71
2023/06/23 05:40:14;;;;;;;;;5.00;5.00;;;;;;;;5053579;28;46047;-69
2023/06/23 05:42:40;;;;;;;;;5.25;4.25;;;;;;;;5053452;28;45836;-69
2023/06/23 05:45:06;;;;;;;;;4.00;4.00;;;;;;;;5066684;28;45423;-68
2023/06/23 05:47:35;;;;;;;;;6.50;5.75;;;;;;;;5054861;28;46162;-68
2023/06/23 05:50:06;;;;;;;;;5.00;5.00;;;;;;;;5058402;28;45575;-71
2023/06/23 05:52:33;;;;;;;;;6.00;5.00;;;;;;;;5053222;28;45329;-69
2023/06/23 05:55:00;;;;;;;;;8.00;6.50;;;;;;;;5072003;28;45348;-68
2023/06/23 05:57:30;;;;;;;;;7.00;6.00;;;;;;;;5053055;28;45500;-69
2023/06/23 06:00:05;;;;;;;;;6.00;4.50;;;;;;;;5053312;28;46535;-68
2023/06/23 06:02:33;;;;;;;;;4.75;3.50;;;;;;;;5061179;28;45928;-68
2023/06/23 06:05:00;;;;;;;;;6.00;4.75;;;;;;;;5061001;28;45299;-70
2023/06/23 06:07:27;;;;;;;;;5.25;4.25;;;;;;;;5061657;28;46119;-69
2023/06/23 06:09:52;;;;;;;;;5.75;4.75;;;;;;;;5067970;27;45804;-69
2023/06/23 06:12:18;;;;;;;;;4.00;4.00;;;;;;;;5047232;28;45699;-69
2023/06/23 06:14:44;;;;;;;;;5.00;4.75;;;;;;;;5032024;28;46002;-70
2023/06/23 06:17:11;;;;;;;;;6.50;5.25;;;;;;;;5057739;28;45788;-69
2023/06/23 06:19:38;;;;;;;;;4.50;3.25;;;;;;;;5054138;28;46922;-67
2023/06/23 06:22:06;;;;;;;;;4.25;4.25;;;;;;;;5052230;28;45721;-69
2023/06/23 06:24:32;;;;;;;;;4.75;4.50;;;;;;;;5037221;28;45874;-67
2023/06/23 06:27:00;;;;;;;;;6.75;5.50;;;;;;;;5062245;28;45638;-67
2023/06/23 06:29:27;;;;;;;;;6.00;4.25;;;;;;;;5055452;28;45608;-68
2023/06/23 06:31:54;;;;;;;;;7.25;5.00;;;;;;;;5052879;28;45466;-68
2023/06/23 06:34:20;;;;;;;;;8.00;7.75;;;;;;;;5060012;28;45477;-69
2023/06/23 06:36:46;;;;;;;;;6.00;6.00;;;;;;;;5030470;28;45856;-70
2023/06/23 06:39:11;;;;;;;;;4.50;4.25;;;;;;;;5052901;28;46931;-70
2023/06/23 06:41:37;;;;;;;;;5.25;4.50;;;;;;;;5060615;28;45888;-68
2023/06/23 06:44:03;;;;;;;;;5.75;4.50;;;;;;;;5059151;28;45762;-67
2023/06/23 06:46:28;;;;;;;;;4.00;3.75;;;;;;;;5037679;28;46064;-67
2023/06/23 06:48:55;;;;;;;;;6.25;4.75;;;;;;;;5033395;28;47885;-67
2023/06/23 06:51:21;;;;;;;;;4.25;3.75;;;;;;;;5038965;28;46208;-72
2023/06/23 06:53:46;;;;;;;;;5.00;5.00;;;;;;;;5042069;28;45753;-66
2023/06/23 06:56:15;;;;;;;;;3.25;3.25;;;;;;;;5044741;28;45758;-66
2023/06/23 06:58:42;;;;;;;;;6.75;5.50;;;;;;;;5052463;28;46484;-69
2023/06/23 07:01:08;;;;;;;;;3.50;3.25;;;;;;;;5033987;28;45685;-67
2023/06/23 07:03:34;;;;;;;;;5.75;4.50;;;;;;;;5064234;28;45752;-67
2023/06/23 07:05:59;;;;;;;;;6.00;6.00;;;;;;;;5038773;28;45604;-67
2023/06/23 07:08:25;;;;;;;;;5.25;4.50;;;;;;;;5061565;28;45551;-67
2023/06/23 07:10:50;;;;;;;;;9.50;4.25;;;;;;;;5068653;27;45738;-67
2023/06/23 07:13:16;;;;;;;;;5.75;4.75;;;;;;;;5051500;27;45868;-68
2023/06/23 07:15:41;;;;;;;;;6.25;4.50;;;;;;;;5069364;27;45804;-68
2023/06/23 07:18:06;;;;;;;;;5.50;5.50;;;;;;;;5066545;27;45961;-68
2023/06/23 07:20:31;;;;;;;;;7.25;7.00;;;;;;;;5068984;27;45754;-68
2023/06/23 07:22:57;;;;;;;;;4.50;4.50;;;;;;;;5068920;27;46427;-69
2023/06/23 07:25:22;;;;;;;;;4.75;4.75;;;;;;;;5067552;27;45613;-69
2023/06/23 07:27:48;;;;;;;;;4.25;4.00;;;;;;;;5080497;27;45651;-70
2023/06/23 07:30:14;;;;;;;;;5.50;4.00;;;;;;;;5071501;27;45451;-70
2023/06/23 07:32:39;;;;;;;;;5.00;5.00;;;;;;;;5071209;27;45652;-71
2023/06/23 07:35:06;;;;;;;;;5.50;4.00;;;;;;;;5050237;28;45772;-72
2023/06/23 07:37:34;;;;;;;;;7.50;7.50;;;;;;;;5051173;28;47224;-70
2023/06/23 07:39:59;;;;;;;;;4.00;4.00;;;;;;;;5068185;27;45745;-69
2023/06/23 07:42:26;;;;;;;;;5.00;4.00;;;;;;;;5070144;28;45413;-67
2023/06/23 07:44:51;;;;;;;;;4.00;4.00;;;;;;;;5072341;27;45565;-69
2023/06/23 07:47:17;;;;;;;;;6.00;5.00;;;;;;;;5069616;27;47029;-68
2023/06/23 07:49:42;;;;;;;;;5.75;5.75;;;;;;;;5054480;28;45679;-68
2023/06/23 07:52:07;;;;;;;;;6.00;5.75;;;;;;;;5071612;28;45963;-70
2023/06/23 07:54:33;;;;;;;;;6.50;5.00;;;;;;;;5068487;27;45673;-72
2023/06/23 07:56:58;;;;;;;;;4.00;4.00;;;;;;;;5068696;27;45899;-70
2023/06/23 07:59:26;;;;;;;;;4.00;4.00;;;;;;;;5044436;27;46662;-68
2023/06/23 08:01:52;;;;;;;;;4.50;4.50;;;;;;;;5054552;28;45791;-68
2023/06/23 08:04:17;;;;;;;;;3.00;3.00;;;;;;;;5050155;28;47003;-67
2023/06/23 08:06:43;;;;;;;;;6.50;4.00;;;;;;;;5067644;27;46163;-67
2023/06/23 08:09:10;;;;;;;;;5.75;4.00;;;;;;;;5062222;28;45373;-68
2023/06/23 08:11:35;;;;;;;;;2.75;2.75;;;;;;;;5071824;27;45404;-69
2023/06/23 08:14:00;;;;;;;;;3.00;3.00;;;;;;;;5067887;27;45917;-69
2023/06/23 08:16:26;;;;;;;;;3.50;3.50;;;;;;;;5057503;27;46922;-69
2023/06/23 08:18:52;;;;;;;;;4.00;4.00;;;;;;;;5070388;27;45484;-70
2023/06/23 08:21:17;;;;;;;;;5.00;5.00;;;;;;;;5071745;28;45343;-68
2023/06/23 08:23:46;;;;;;;;;5.00;5.00;;;;;;;;5062905;28;45710;-68
2023/06/23 08:26:11;;;;;;;;;3.00;3.00;;;;;;;;5065412;28;45753;-68
2023/06/23 08:28:36;;;;;;;;;3.00;3.00;;;;;;;;5068396;28;45762;-71
2023/06/23 08:31:02;;;;;;;;;4.33;4.33;;;;;;;;5071747;27;45378;-70
2023/06/23 08:33:27;;;;;;;;;6.00;3.33;;;;;;;;5069983;28;45485;-68
2023/06/23 08:35:52;;;;;;;;;2.50;2.25;;;;;;;;5067389;27;45918;-69
2023/06/23 08:38:18;;;;;;;;;2.00;2.00;;;;;;;;5054614;28;45501;-69
2023/06/23 08:40:44;;;;;;;;;3.67;3.67;;;;;;;;5072351;27;45786;-69
2023/06/23 08:43:10;;;;;;;;;2.00;2.00;;;;;;;;5051499;27;45879;-68
2023/06/23 08:45:40;;;;;;;;;2.67;2.33;;;;;;;;5066582;27;45678;-68
2023/06/23 08:48:05;;;;;;;;;2.33;2.33;;;;;;;;5043338;27;45467;-69
2023/06/23 08:50:31;;;;;;;;;3.00;3.00;;;;;;;;5071744;27;45680;-67
2023/06/23 08:52:59;;;;;;;;;3.00;3.00;;;;;;;;5056167;28;45634;-68
2023/06/23 08:55:24;;;;;;;;;4.67;3.00;;;;;;;;5055654;28;45962;-67
2023/06/23 08:57:49;;;;;;;;;2.00;2.00;;;;;;;;5059997;27;45511;-69
2023/06/23 09:00:15;;;;;;;;;2.67;2.67;;;;;;;;5061332;27;45392;-68
2023/06/23 09:02:41;;;;;;;;;2.00;2.00;;;;;;;;5070842;27;45901;-69
2023/06/23 09:05:06;;;;;;;;;2.67;2.67;;;;;;;;5069862;27;45668;-68
2023/06/23 09:07:32;;;;;;;;;1.33;1.33;;;;;;;;5068726;28;45787;-69
2023/06/23 09:09:57;;;;;;;;;2.00;2.00;;;;;;;;5078615;27;45830;-69
2023/06/23 09:12:24;;;;;;;;;1.67;1.67;;;;;;;;5069923;27;45541;-68
2023/06/23 09:14:50;;;;;;;;;3.00;3.00;;;;;;;;5049091;28;47351;-71
2023/06/23 09:17:15;;;;;;;;;2.00;2.00;;;;;;;;5059614;27;45744;-68
2023/06/23 09:19:42;;;;;;;;;1.00;1.00;;;;;;;;5064417;27;45346;-69
2023/06/23 09:22:08;;;;;;;;;1.67;1.67;;;;;;;;5064507;27;45871;-70
2023/06/23 09:24:41;;;;;;;;;0.67;0.00;;;;;;;;5074174;27;45916;-69
2023/06/23 09:27:06;;;;;;;;;1.00;1.00;;;;;;;;5069608;27;45446;-70
2023/06/23 09:29:32;;;;;;;;;1.67;1.67;;;;;;;;5072450;27;46089;-69
2023/06/23 09:31:59;;;;;;;;;2.33;2.33;;;;;;;;5065676;28;45430;-69
2023/06/23 09:34:29;;;;;;;;;0.67;0.67;;;;;;;;5050756;28;47169;-68
2023/06/23 09:37:04;;;;;;;;;4.00;3.00;;;;;;;;5050489;28;45776;-69
2023/06/23 09:39:34;;;;;;;;;0.67;0.67;;;;;;;;5066723;27;45756;-69
2023/06/23 09:41:59;;;;;;;;;2.33;1.67;;;;;;;;5070706;27;45907;-69
2023/06/23 09:44:34;;;;;;;;;0.33;0.33;;;;;;;;5070599;27;46336;-68
2023/06/23 09:47:03;;;;;;;;;2.00;2.00;;;;;;;;5071722;27;45841;-69
2023/06/23 09:49:36;;;;;;;;;1.67;1.67;;;;;;;;5069581;27;45473;-69
2023/06/23 09:52:01;;;;;;;;;1.00;1.00;;;;;;;;5063785;27;45902;-69
2023/06/23 09:54:30;;;;;;;;;2.00;2.00;;;;;;;;5069587;27;45656;-69
2023/06/23 09:57:06;;;;;;;;;2.00;2.00;;;;;;;;5067141;28;45416;-68
2023/06/23 09:59:31;;;;;;;;;1.33;1.33;;;;;;;;5078705;27;45509;-71
2023/06/23 10:01:56;;;;;;;;;1.33;1.33;;;;;;;;5053680;27;45829;-67
2023/06/23 10:04:27;;;;;;;;;3.33;1.00;;;;;;;;5073267;27;46175;-69
2023/06/23 10:06:52;;;;;;;;;1.00;1.00;;;;;;;;5084176;22;45883;-83
2023/06/23 10:09:22;;;;;;;;;1.67;1.00;;;;;;;;5105965;27;45919;-83
2023/06/23 10:12:05;;;;;;;;;3.33;2.33;;;;;;;;5106298;27;45800;-82
2023/06/23 10:14:31;;;;;;;;;2.67;1.67;;;;;;;;5090135;27;47081;-84
2023/06/23 10:17:01;;;;;;;;;1.33;1.33;;;;;;;;5121845;27;45835;-83
2023/06/23 10:20:06;;;;;;;;;;;;;;;;;;;;;
2023/06/23 10:22:35;;;;;;;;;4.67;2.00;;;;;;;;5119790;27;72980;-85
2023/06/23 10:25:23;;;;;;;;;2.67;2.67;;;;;;;;5103881;27;45618;-81
2023/06/23 10:27:56;;;;;;;;;4.00;3.00;;;;;;;;5118000;27;45651;-81
2023/06/23 10:30:30;;;;;;;;;3.00;2.67;;;;;;;;5113129;27;44874;-80
2023/06/23 10:32:56;;;;;;;;;2.00;2.00;;;;;;;;5098053;27;46944;-80
2023/06/23 10:35:32;;;;;;;;;0.67;0.67;;;;;;;;5107831;27;45855;-83
2023/06/23 10:38:07;;;;;;;;;3.50;3.50;;;;;;;;5088510;27;46045;-82
2023/06/23 10:40:36;;;;;;;;;2.33;2.33;;;;;;;;5091237;27;45624;-82
2023/06/23 10:43:01;;;;;;;;;3.00;3.00;;;;;;;;5115551;27;45421;-81
2023/06/23 10:45:32;;;;;;;;;3.00;3.00;;;;;;;;5112901;27;46157;-83
2023/06/23 10:48:02;;;;;;;;;3.67;3.67;;;;;;;;5112041;27;45615;-82
2023/06/23 10:50:29;;;;;;;;;3.00;3.00;;;;;;;;5093542;27;45907;-76
2023/06/23 10:52:56;;;;;;;;;2.00;2.00;;;;;;;;5094570;27;46533;-73
2023/06/23 10:55:33;;;;;;;;;3.00;3.00;;;;;;;;5088224;27;45763;-76
2023/06/23 10:58:12;;;;;;;;;2.33;2.00;;;;;;;;5110434;27;45496;-77
2023/06/23 11:00:37;;;;;;;;;4.00;4.00;;;;;;;;5108191;27;45667;-77
2023/06/23 11:03:05;;;;;;;;;4.33;4.33;;;;;;;;5103247;27;45777;-76
2023/06/23 11:05:31;;;;;;;;;4.00;4.00;;;;;;;;5100820;27;45902;-75
2023/06/23 11:08:00;;;;;;;;;3.00;3.00;;;;;;;;5086553;27;45614;-77
2023/06/23 11:10:44;;;;;;;;;5.00;4.00;;;;;;;;5084315;27;45569;-77
2023/06/23 11:13:13;;;;;;;;;2.67;2.67;;;;;;;;5070373;27;46352;-79
2023/06/23 11:15:38;;;;;;;;;4.00;3.00;;;;;;;;5087107;27;47317;-77
2023/06/23 11:18:04;;;;;;;;;3.75;3.75;;;;;;;;5082231;27;45888;-78
2023/06/23 11:20:31;;;;;;;;;3.00;3.00;;;;;;;;5087800;27;45859;-78
2023/06/23 11:23:06;;;;;;;;;3.75;3.75;;;;;;;;5084006;27;46430;-76
2023/06/23 11:25:31;;;;;;;;;3.25;3.25;;;;;;;;5100664;27;45860;-78
2023/06/23 11:28:15;;;;;;;;;4.00;4.00;;;;;;;;5087571;27;45632;-77
2023/06/23 11:31:00;;;;;;;;;4.00;3.25;;;;;;;;5101794;27;46043;-76
2023/06/23 11:33:26;;;;;;;;;2.25;2.25;;;;;;;;5096329;27;46019;-77
2023/06/23 11:35:53;;;;;;;;;3.00;3.00;;;;;;;;5096772;27;45923;-76
2023/06/23 11:38:19;;;;;;;;;5.25;4.50;;;;;;;;5086519;27;45963;-76
2023/06/23 11:40:44;;;;;;;;;6.25;5.50;;;;;;;;5107096;27;45967;-75
2023/06/23 11:43:10;;;;;;;;;5.75;5.00;;;;;;;;5100851;27;45459;-78
2023/06/23 11:45:36;;;;;;;;;5.00;5.00;;;;;;;;5096205;27;45854;-77
2023/06/23 11:48:01;;;;;;;;;5.50;4.50;;;;;;;;5083696;27;45520;-75
2023/06/23 11:50:26;;;;;;;;;3.00;3.00;;;;;;;;5084460;27;45995;-77
2023/06/23 11:52:52;;;;;;;;;3.00;3.00;;;;;;;;5079765;27;45745;-77
2023/06/23 11:55:17;;;;;;;;;6.25;5.00;;;;;;;;5103647;27;45758;-79
2023/06/23 11:57:47;;;;;;;;;4.00;3.25;;;;;;;;5105270;27;45554;-79
2023/06/23 12:00:13;;;;;;;;;6.00;4.75;;;;;;;;5114185;27;45670;-80
2023/06/23 12:02:38;;;;;;;;;9.25;8.25;;;;;;;;5079326;27;46549;-83
2023/06/23 12:05:04;;;;;;;;;10.00;9.00;;;;;;;;5102699;27;45486;-80
2023/06/23 12:07:30;;;;;;;;;5.50;5.50;;;;;;;;5095611;27;45610;-82
2023/06/23 12:09:55;;;;;;;;;7.50;6.25;;;;;;;;5100261;27;45738;-77
2023/06/23 12:12:21;;;;;;;;;7.00;6.00;;;;;;;;5111013;27;45950;-80
2023/06/23 12:14:46;;;;;;;;;5.25;4.00;;;;;;;;5113517;27;45814;-80
2023/06/23 12:17:12;;;;;;;;;3.00;3.00;;;;;;;;5095631;27;45660;-78
2023/06/23 12:19:38;;;;;;;;;5.00;5.00;;;;;;;;5098705;27;45493;-81
2023/06/23 12:22:12;;;;;;;;;3.50;3.50;;;;;;;;5088684;27;45844;-80
2023/06/23 12:24:38;;;;;;;;;4.50;4.00;;;;;;;;5085462;27;46235;-80
2023/06/23 12:27:04;;;;;;;;;5.00;5.00;;;;;;;;5083748;27;46047;-80
2023/06/23 12:29:30;;;;;;;;;5.50;5.00;;;;;;;;5081370;27;45699;-79
2023/06/23 12:32:02;;;;;;;;;5.00;3.00;;;;;;;;5106047;27;45814;-81
2023/06/23 12:34:31;;;;;;;;;4.25;4.25;;;;;;;;5085250;27;45972;-80
2023/06/23 12:37:03;;;;;;;;;8.00;4.50;;;;;;;;5094745;27;45931;-84
2023/06/23 12:39:29;;;;;;;;;3.75;3.00;;;;;;;;5102781;27;45705;-81
2023/06/23 12:41:54;;;;;;;;;6.00;5.00;;;;;;;;5082592;27;46649;-79
2023/06/23 12:44:21;;;;;;;;;3.00;3.00;;;;;;;;5102225;27;46254;-80
2023/06/23 12:46:49;;;;;;;;;4.00;4.00;;;;;;;;5105550;27;45804;-81
2023/06/23 12:49:14;;;;;;;;;3.75;3.75;;;;;;;;5107951;27;45516;-80
2023/06/23 12:51:40;;;;;;;;;7.50;5.50;;;;;;;;5094601;27;46847;-80
2023/06/23 12:54:05;;;;;;;;;3.75;3.50;;;;;;;;5082692;27;45846;-83
2023/06/23 12:56:31;;;;;;;;;4.00;4.00;;;;;;;;5107168;27;45884;-82
2023/06/23 12:58:58;;;;;;;;;4.00;2.50;;;;;;;;5088749;27;45968;-82
2023/06/23 13:01:24;;;;;;;;;6.00;3.75;;;;;;;;5083118;27;45683;-81
2023/06/23 13:03:49;;;;;;;;;5.50;4.75;;;;;;;;5101855;27;46401;-82
2023/06/23 13:06:15;;;;;;;;;5.25;4.75;;;;;;;;5108247;27;45686;-80
2023/06/23 13:08:41;;;;;;;;;5.00;4.00;;;;;;;;5097605;27;45500;-81
2023/06/23 13:11:06;;;;;;;;;4.75;4.75;;;;;;;;5101131;27;45933;-81
2023/06/23 13:13:32;;;;;;;;;3.00;2.00;;;;;;;;5088083;27;48283;-80
2023/06/23 13:15:57;;;;;;;;;7.00;4.00;;;;;;;;5102607;27;45917;-78
2023/06/23 13:18:22;;;;;;;;;3.00;3.00;;;;;;;;5106317;27;46282;-79
2023/06/23 13:20:48;;;;;;;;;4.00;3.75;;;;;;;;5108515;27;45402;-79
2023/06/23 13:23:13;;;;;;;;;5.00;3.75;;;;;;;;5085030;27;46916;-79
2023/06/23 13:25:39;;;;;;;;;3.25;3.25;;;;;;;;5106739;27;45809;-81
2023/06/23 13:28:04;;;;;;;;;3.50;3.00;;;;;;;;5114862;27;45757;-79
2023/06/23 13:30:29;;;;;;;;;4.50;3.50;;;;;;;;5086747;27;45921;-80
2023/06/23 13:32:54;;;;;;;;;3.50;3.50;;;;;;;;5111766;27;45515;-79
2023/06/23 13:35:20;;;;;;;;;6.00;6.00;;;;;;;;5114447;27;46568;-82
2023/06/23 13:37:45;;;;;;;;;3.25;3.00;;;;;;;;5099984;27;45819;-82
2023/06/23 13:40:12;;;;;;;;;3.00;3.00;;;;;;;;5084955;27;46120;-82
2023/06/23 13:42:41;;;;;;;;;4.75;4.25;;;;;;;;5085104;27;46036;-82
2023/06/23 13:45:08;;;;;;;;;4.50;2.50;;;;;;;;5102169;27;45791;-79
2023/06/23 13:47:33;;;;;;;;;3.00;3.00;;;;;;;;5085669;27;45344;-80
2023/06/23 13:49:59;;;;;;;;;4.50;3.50;;;;;;;;5082042;27;45776;-80
2023/06/23 13:52:24;;;;;;;;;2.75;2.75;;;;;;;;5105431;27;46211;-80
2023/06/23 13:54:50;;;;;;;;;3.00;3.00;;;;;;;;5109027;27;45452;-81
2023/06/23 13:57:15;;;;;;;;;4.50;3.50;;;;;;;;5104089;27;45338;-79
2023/06/23 13:59:41;;;;;;;;;3.25;3.00;;;;;;;;5093694;27;45407;-81
2023/06/23 14:02:06;;;;;;;;;3.50;3.00;;;;;;;;5121452;27;45813;-80
2023/06/23 14:04:32;;;;;;;;;3.50;3.50;;;;;;;;5106311;27;45904;-82
2023/06/23 14:06:57;;;;;;;;;4.50;4.50;;;;;;;;5105983;27;45671;-80
2023/06/23 14:09:22;;;;;;;;;3.50;3.50;;;;;;;;5093033;27;45605;-82
2023/06/23 14:11:48;;;;;;;;;6.00;4.75;;;;;;;;5096657;27;45575;-82
2023/06/23 14:14:13;;;;;;;;;3.75;3.75;;;;;;;;5108583;27;45821;-78
2023/06/23 14:16:39;;;;;;;;;5.00;3.50;;;;;;;;5081691;27;45890;-81
2023/06/23 14:19:08;;;;;;;;;5.50;4.00;;;;;;;;5104812;27;45734;-80
2023/06/23 14:21:33;;;;;;;;;6.25;6.25;;;;;;;;5114915;27;45558;-81
2023/06/23 14:23:59;;;;;;;;;6.75;5.25;;;;;;;;5111767;27;45819;-79
2023/06/23 14:26:24;;;;;;;;;3.00;3.00;;;;;;;;5083491;27;46184;-80
2023/06/23 14:28:49;;;;;;;;;4.00;4.00;;;;;;;;5102487;27;46068;-79
2023/06/23 14:31:15;;;;;;;;;2.25;2.25;;;;;;;;5081494;27;47589;-80
2023/06/23 14:33:40;;;;;;;;;4.25;3.75;;;;;;;;5100627;27;46747;-79
2023/06/23 14:36:06;;;;;;;;;4.00;4.00;;;;;;;;5102344;27;45474;-79
2023/06/23 14:38:32;;;;;;;;;5.00;4.00;;;;;;;;5110266;27;45379;-81
2023/06/23 14:40:57;;;;;;;;;3.75;3.75;;;;;;;;5105398;27;45789;-81